Time;durP1;ratioP1;P1;durP2;ratioP2;P2;SDS_P1;SDS_P2;PMS_P1;PMS_P2;Temp;Humidity;BMP_temperature;BMP_pressure;BME280_temperature;BME280_humidity;BME280_pressure;Samples;Min_cycle;Max_cycle;Signal;HPM_P1;HPM_P2
2022/07/26 00:01:34;;;;;;;7.58;0.60;;;;;;;19.53;74.99;99943.34;1694075;83;21002;-70
2022/07/26 00:04:00;;;;;;;1.40;0.40;;;;;;;19.50;75.22;99938.48;1685790;85;21596;-71
2022/07/26 00:06:27;;;;;;;0.65;0.40;;;;;;;19.42;75.41;99928.92;1676737;85;21149;-72
2022/07/26 00:08:57;;;;;;;1.62;0.42;;;;;;;19.42;75.64;99931.11;1694889;85;21069;-72
2022/07/26 00:11:24;;;;;;;0.30;0.30;;;;;;;19.37;76.04;99931.60;1687076;84;21176;-72
2022/07/26 00:13:50;;;;;;;4.47;0.37;;;;;;;19.34;76.29;99930.75;1689179;85;21046;-71
2022/07/26 00:16:18;;;;;;;2.20;0.50;;;;;;;19.30;76.56;99929.09;1694642;85;21349;-68
2022/07/26 00:18:44;;;;;;;2.12;0.60;;;;;;;19.28;76.87;99933.13;1693485;85;21617;-68
2022/07/26 00:21:10;;;;;;;0.55;0.53;;;;;;;19.23;77.06;99929.31;1678421;85;21077;-68
2022/07/26 00:23:38;;;;;;;4.10;0.50;;;;;;;19.19;77.34;99927.36;1683088;82;21037;-69
2022/07/26 00:26:06;;;;;;;2.30;0.63;;;;;;;19.13;78.00;99924.34;1679201;85;21582;-69
2022/07/26 00:28:32;;;;;;;2.10;0.72;;;;;;;19.06;78.10;99922.66;1691565;83;20966;-70
2022/07/26 00:30:59;;;;;;;0.60;0.60;;;;;;;19.04;78.60;99929.38;1686338;85;21026;-68
2022/07/26 00:33:25;;;;;;;0.57;0.57;;;;;;;19.00;78.42;99927.72;1681675;82;21502;-69
2022/07/26 00:35:51;;;;;;;;;;;;;;;18.95;78.41;99924.98;1687930;85;21049;-70
2022/07/26 00:38:17;;;;;;;0.80;0.68;;;;;;;18.90;78.57;99924.11;1693153;85;20196;-71
2022/07/26 00:40:43;;;;;;;0.85;0.53;;;;;;;18.81;79.18;99925.08;1693240;85;21006;-70
2022/07/26 00:43:10;;;;;;;1.32;0.85;;;;;;;18.74;79.41;99919.86;1694121;85;21073;-69
2022/07/26 00:45:37;;;;;;;1.82;1.42;;;;;;;18.71;79.54;99919.00;1691410;85;20990;-69
2022/07/26 00:48:04;;;;;;;0.78;0.68;;;;;;;18.67;79.59;99924.63;1691657;85;21813;-69
2022/07/26 00:50:32;;;;;;;3.80;1.15;;;;;;;18.64;79.98;99919.73;1685457;85;21023;-70
2022/07/26 00:52:59;;;;;;;1.10;1.05;;;;;;;18.63;80.16;99919.46;1687474;85;21533;-67
2022/07/26 00:55:26;;;;;;;0.80;0.78;;;;;;;18.61;79.96;99910.27;1679567;82;21130;-67
2022/07/26 00:57:52;;;;;;;0.72;0.72;;;;;;;18.60;80.11;99905.91;1699189;82;21037;-70
2022/07/26 01:00:21;;;;;;;;;;;;;;;18.58;80.04;99904.00;1702434;82;21059;-71
2022/07/26 01:02:48;;;;;;;1.27;0.98;;;;;;;18.56;80.23;99907.49;1706915;82;20484;-70
2022/07/26 01:05:15;;;;;;;1.47;1.37;;;;;;;18.48;80.25;99900.66;1691224;82;21139;-69
2022/07/26 01:07:43;;;;;;;0.85;0.70;;;;;;;18.44;80.14;99907.63;1706867;82;21099;-68
2022/07/26 01:10:11;;;;;;;1.20;0.80;;;;;;;18.38;80.26;99904.55;1706389;82;21037;-70
2022/07/26 01:12:42;;;;;;;0.68;0.68;;;;;;;18.31;80.32;99903.11;1699064;82;21075;-69
2022/07/26 01:15:12;;;;;;;1.37;0.80;;;;;;;18.24;80.52;99901.97;1702941;82;21506;-69
2022/07/26 01:17:40;;;;;;;0.78;0.65;;;;;;;18.19;80.83;99908.63;1707952;82;21020;-68
2022/07/26 01:20:10;;;;;;;0.82;0.82;;;;;;;18.20;81.05;99906.23;1707770;82;21068;-70
2022/07/26 01:22:36;;;;;;;0.65;0.30;;;;;;;18.22;81.14;99908.14;1705472;82;21024;-69
2022/07/26 01:25:05;;;;;;;0.80;0.80;;;;;;;18.23;80.76;99911.95;1704966;82;21060;-69
2022/07/26 01:28:55;;;;;;;0.50;0.50;;;;;;;18.28;80.62;99905.79;1795700;79;22867;-69
2022/07/26 01:31:21;;;;;;;3.87;0.50;;;;;;;18.22;80.61;99910.30;1746415;80;21053;-69
2022/07/26 01:33:49;;;;;;;1.67;0.62;;;;;;;18.21;80.28;99907.84;1736496;80;21004;-70
2022/07/26 01:36:16;;;;;;;1.70;0.72;;;;;;;18.18;80.00;99912.41;1735667;81;20993;-68
2022/07/26 01:38:42;;;;;;;0.53;0.50;;;;;;;18.14;79.88;99905.86;1739302;81;21536;-69
2022/07/26 01:41:09;;;;;;;2.77;0.82;;;;;;;18.08;79.63;99909.85;1734689;81;20982;-69
2022/07/26 01:43:36;;;;;;;0.40;0.40;;;;;;;18.05;79.61;99913.03;1737522;81;21124;-69
2022/07/26 01:46:07;;;;;;;0.50;0.50;;;;;;;18.02;79.52;99912.17;1738143;79;21040;-70
2022/07/26 01:48:34;;;;;;;0.90;0.42;;;;;;;17.98;79.49;99913.73;1744230;81;21589;-69
2022/07/26 01:51:02;;;;;;;0.85;0.53;;;;;;;17.97;79.61;99910.77;1681238;83;21051;-69
2022/07/26 01:53:28;;;;;;;0.75;0.75;;;;;;;17.95;79.64;99912.91;1689177;84;20987;-71
2022/07/26 01:55:54;;;;;;;0.57;0.57;;;;;;;17.92;79.76;99913.38;1661331;84;21590;-70
2022/07/26 01:58:21;;;;;;;3.17;0.50;;;;;;;17.89;79.74;99913.86;1650846;86;21197;-70
2022/07/26 02:00:48;;;;;;;0.78;0.62;;;;;;;17.89;79.90;99912.52;1655776;86;21034;-70
2022/07/26 02:03:14;;;;;;;0.40;0.40;;;;;;;17.87;79.65;99910.06;1661171;84;21058;-68
2022/07/26 02:05:40;;;;;;;;;;;;;;;17.82;79.76;99907.28;1678886;84;21542;-70
2022/07/26 02:08:09;;;;;;;0.40;0.40;;;;;;;17.81;79.90;99912.91;1686226;84;20511;-70
2022/07/26 02:13:20;;;;;;;1.87;0.30;;;;;;;17.74;79.98;99908.22;1630995;84;21540;-69
2022/07/26 02:15:46;;;;;;;2.67;0.70;;;;;;;17.71;80.00;99909.53;1649763;85;21073;-70
2022/07/26 02:18:12;;;;;;;1.60;0.60;;;;;;;17.71;80.23;99906.84;1666297;85;21064;-70
2022/07/26 02:20:39;;;;;;;0.85;0.30;;;;;;;17.70;80.08;99906.00;1645583;85;21625;-69
2022/07/26 02:23:05;;;;;;;;;;;;;;;17.71;80.09;99905.49;1673409;84;21010;-69
2022/07/26 02:25:32;;;;;;;0.40;0.40;;;;;;;17.69;80.19;99905.73;1685397;83;20142;-69
2022/07/26 02:28:00;;;;;;;0.75;0.40;;;;;;;17.61;80.36;99907.50;1678801;84;21585;-69
2022/07/26 02:30:27;;;;;;;1.02;0.82;;;;;;;17.61;80.45;99911.55;1660052;84;21070;-69
2022/07/26 02:32:54;;;;;;;0.70;0.65;;;;;;;17.62;80.26;99906.97;1684136;84;21010;-69
2022/07/26 02:35:20;;;;;;;0.70;0.70;;;;;;;17.62;80.29;99904.27;1643035;85;21030;-69
2022/07/26 02:37:46;;;;;;;0.80;0.80;;;;;;;17.63;80.21;99910.77;1698588;83;21485;-69
2022/07/26 02:40:12;;;;;;;0.40;0.40;;;;;;;17.65;80.16;99907.80;1693165;83;20982;-69
2022/07/26 02:42:39;;;;;;;0.93;0.60;;;;;;;17.66;80.09;99904.87;1692785;83;21531;-70
2022/07/26 02:45:06;;;;;;;;;;;;;;;17.69;80.00;99908.43;1702350;83;21057;-69
2022/07/26 02:47:32;;;;;;;3.45;0.62;;;;;;;17.70;80.09;99907.89;1701106;83;20190;-70
2022/07/26 02:49:58;;;;;;;2.65;0.80;;;;;;;17.66;80.17;99910.26;1704295;83;20998;-69
2022/07/26 02:52:24;;;;;;;0.60;0.60;;;;;;;17.68;80.24;99908.13;1690098;83;21482;-69
2022/07/26 02:54:50;;;;;;;;;;;;;;;17.71;80.14;99913.04;1712678;83;21045;-69
2022/07/26 02:57:16;;;;;;;0.85;0.60;;;;;;;17.75;80.11;99917.95;1723917;80;20124;-69
2022/07/26 02:59:42;;;;;;;0.90;0.90;;;;;;;17.74;80.23;99913.06;1719385;82;21098;-69
2022/07/26 03:02:08;;;;;;;;;;;;;;;17.80;80.09;99915.31;1717064;82;20985;-69
2022/07/26 03:04:35;;;;;;;2.05;0.82;;;;;;;17.88;79.82;99917.10;1712648;82;20109;-69
2022/07/26 03:07:02;;;;;;;0.65;0.65;;;;;;;18.08;79.85;99911.20;1724736;82;21125;-69
2022/07/26 03:09:28;;;;;;;;;;;;;;;18.54;78.00;99912.33;1698058;82;21006;-71
2022/07/26 03:11:54;;;;;;;1.15;0.72;;;;;;;19.02;75.82;99910.75;1714929;82;20206;-69
2022/07/26 03:14:20;;;;;;;;;;;;;;;19.51;73.92;99915.22;1711944;82;20998;-69
2022/07/26 03:16:46;;;;;;;1.12;0.45;;;;;;;20.05;72.05;99906.72;1711424;82;20157;-69
2022/07/26 03:19:12;;;;;;;1.45;0.40;;;;;;;20.57;70.33;99899.12;1676090;84;21104;-69
2022/07/26 03:21:38;;;;;;;;;;;;;;;21.17;67.26;99900.91;1718077;82;21075;-69
2022/07/26 03:24:05;;;;;;;1.35;0.70;;;;;;;21.63;65.40;99894.18;1718105;82;20166;-69
2022/07/26 03:26:31;;;;;;;0.90;0.90;;;;;;;21.99;63.60;99898.19;1708061;82;21054;-70
2022/07/26 03:28:58;;;;;;;1.12;0.90;;;;;;;22.42;61.54;99904.06;1713848;82;21133;-71
2022/07/26 03:31:24;;;;;;;1.40;0.62;;;;;;;22.78;60.24;99895.74;1713912;82;21069;-71
2022/07/26 03:33:50;;;;;;;1.42;0.42;;;;;;;23.13;58.39;99893.38;1666378;84;21014;-71
2022/07/26 03:36:17;;;;;;;0.50;0.45;;;;;;;23.43;57.30;99894.25;1691534;83;21153;-71
2022/07/26 03:38:43;;;;;;;2.37;0.65;;;;;;;23.67;56.20;99890.77;1697804;83;21082;-69
2022/07/26 03:41:09;;;;;;;1.15;0.30;;;;;;;23.91;55.43;99896.28;1675929;83;21059;-69
2022/07/26 03:43:35;;;;;;;0.62;0.40;;;;;;;24.13;54.36;99899.86;1686468;83;21538;-70
2022/07/26 03:46:01;;;;;;;2.42;0.30;;;;;;;24.34;54.07;99888.73;1714434;82;20980;-70
2022/07/26 03:48:30;;;;;;;0.85;0.60;;;;;;;24.66;52.92;99882.62;1726836;82;21034;-70
2022/07/26 03:50:56;;;;;;;3.15;0.47;;;;;;;24.92;51.92;99890.43;1708853;82;20971;-71
2022/07/26 03:53:23;;;;;;;2.22;0.45;;;;;;;25.12;51.40;99889.33;1700727;82;21130;-71
2022/07/26 03:58:35;;;;;;;2.47;0.50;;;;;;;25.69;49.63;99886.50;1682372;84;21001;-70
2022/07/26 04:01:01;;;;;;;2.80;0.88;;;;;;;26.00;47.90;99886.78;1694903;82;21343;-68
2022/07/26 04:03:27;;;;;;;0.35;0.35;;;;;;;25.84;47.54;99850.73;1694989;84;21122;-71
2022/07/26 04:05:53;;;;;;;2.17;0.35;;;;;;;26.13;47.56;99896.91;1687745;84;21705;-70
2022/07/26 04:08:19;;;;;;;1.25;0.20;;;;;;;26.22;47.14;99901.91;1665635;85;21006;-70
2022/07/26 04:10:49;;;;;;;0.90;0.35;;;;;;;26.34;47.01;99900.03;1665548;85;20962;-71
2022/07/26 04:13:16;;;;;;;1.22;0.57;;;;;;;26.40;46.53;99904.84;1671206;85;21011;-70
2022/07/26 04:15:42;;;;;;;1.20;0.68;;;;;;;26.26;47.02;99906.22;1657627;85;21082;-70
2022/07/26 04:18:08;;;;;;;2.15;0.65;;;;;;;26.20;46.99;99906.05;1602498;87;21586;-71
2022/07/26 04:20:34;;;;;;;1.12;0.55;;;;;;;25.95;47.45;99908.72;1656221;85;21142;-70
2022/07/26 04:23:00;;;;;;;1.50;0.42;;;;;;;25.79;48.07;99910.33;1665420;84;21563;-70
2022/07/26 04:25:26;;;;;;;1.55;0.93;;;;;;;25.79;48.22;99909.53;1655580;86;21165;-71
2022/07/26 04:27:52;;;;;;;2.65;1.22;;;;;;;25.77;48.15;99907.09;1600577;89;21146;-73
2022/07/26 04:30:20;;;;;;;1.12;0.72;;;;;;;25.95;48.16;99904.63;1591257;88;21594;-70
2022/07/26 04:32:47;;;;;;;1.85;0.70;;;;;;;26.16;47.61;99915.42;1606206;88;21152;-71
2022/07/26 04:35:14;;;;;;;0.50;0.50;;;;;;;26.16;47.28;99908.59;1652028;85;21051;-70
2022/07/26 04:37:41;;;;;;;1.05;0.75;;;;;;;26.08;47.67;99909.28;1694915;83;21097;-72
2022/07/26 04:40:10;;;;;;;0.98;0.80;;;;;;;26.12;47.46;99911.66;1693360;84;21053;-71
2022/07/26 04:42:37;;;;;;;2.25;1.20;;;;;;;26.19;47.47;99906.61;1691540;83;21130;-71
2022/07/26 04:45:05;;;;;;;2.58;1.57;;;;;;;26.34;47.59;99912.89;1693642;81;21022;-72
2022/07/26 04:47:31;;;;;;;3.52;1.25;;;;;;;26.56;46.93;99919.81;1702495;84;21022;-72
2022/07/26 04:49:57;;;;;;;1.67;1.20;;;;;;;26.76;46.68;99921.88;1686328;83;21361;-72
2022/07/26 04:52:24;;;;;;;2.17;1.50;;;;;;;26.99;45.82;99926.83;1687462;84;21113;-69
2022/07/26 04:54:50;;;;;;;4.25;1.67;;;;;;;27.07;45.46;99917.08;1688192;84;21081;-71
2022/07/26 04:57:16;;;;;;;3.20;1.35;;;;;;;27.19;45.08;99920.08;1685952;84;21335;-70
2022/07/26 04:59:43;;;;;;;5.55;2.05;;;;;;;27.33;45.19;99922.25;1667575;84;21618;-68
2022/07/26 05:02:13;;;;;;;1.80;1.10;;;;;;;27.24;45.01;99925.45;1641785;86;21309;-69
2022/07/26 05:04:38;;;;;;;1.50;1.40;;;;;;;27.13;45.54;99924.06;1628835;87;21690;-70
2022/07/26 05:07:05;;;;;;;2.58;1.50;;;;;;;27.25;46.04;99917.50;1651132;87;21040;-71
2022/07/26 05:09:31;;;;;;;3.75;1.60;;;;;;;27.25;45.10;99912.03;1646900;85;21031;-71
2022/07/26 05:11:57;;;;;;;3.25;1.82;;;;;;;27.13;45.79;99926.23;1638184;85;21045;-70
2022/07/26 05:14:23;;;;;;;3.67;1.70;;;;;;;27.05;45.80;99920.68;1650397;85;21108;-69
2022/07/26 05:16:50;;;;;;;1.50;1.37;;;;;;;26.90;46.51;99928.67;1658622;85;21143;-70
2022/07/26 05:19:16;;;;;;;4.97;1.75;;;;;;;26.83;46.58;99926.38;1694472;83;20987;-75
2022/07/26 05:21:42;;;;;;;2.10;1.67;;;;;;;26.73;47.92;99925.21;1694270;83;21117;-71
2022/07/26 05:24:08;;;;;;;3.83;1.82;;;;;;;26.75;47.40;99928.47;1691807;83;21074;-77
2022/07/26 05:26:34;;;;;;;2.02;1.67;;;;;;;26.70;47.44;99932.11;1694670;83;21083;-73
2022/07/26 05:29:01;;;;;;;3.10;1.47;;;;;;;26.63;47.91;99925.44;1694590;83;21661;-74
2022/07/26 05:31:27;;;;;;;3.87;1.60;;;;;;;26.53;48.35;99917.67;1694429;83;21486;-72
2022/07/26 05:33:54;;;;;;;2.12;1.92;;;;;;;26.50;48.60;99922.38;1696544;82;21024;-77
2022/07/26 05:36:20;;;;;;;1.65;1.35;;;;;;;26.48;48.83;99923.80;1695342;83;21455;-74
2022/07/26 05:38:46;;;;;;;1.22;1.20;;;;;;;26.57;48.91;99925.51;1696701;83;21006;-74
2022/07/26 05:41:12;;;;;;;2.75;1.25;;;;;;;26.73;48.49;99926.04;1696591;83;21061;-73
2022/07/26 05:43:38;;;;;;;2.47;1.15;;;;;;;26.72;48.77;99929.08;1699086;83;21018;-81
2022/07/26 05:46:05;;;;;;;1.15;1.02;;;;;;;26.61;48.94;99923.01;1693127;82;21338;-75
2022/07/26 05:48:31;;;;;;;1.25;1.20;;;;;;;26.40;50.56;99922.03;1697192;83;21636;-73
2022/07/26 05:50:58;;;;;;;2.55;0.98;;;;;;;26.52;49.34;99924.80;1696750;83;21082;-73
2022/07/26 05:53:25;;;;;;;1.37;0.93;;;;;;;26.61;49.31;99923.81;1700276;83;21170;-71
2022/07/26 05:55:51;;;;;;;1.40;0.60;;;;;;;26.81;49.06;99923.14;1695205;82;20995;-71
2022/07/26 05:58:17;;;;;;;1.22;1.10;;;;;;;26.81;48.45;99924.50;1699028;83;21034;-71
2022/07/26 06:00:43;;;;;;;4.40;1.17;;;;;;;26.73;48.74;99926.04;1700643;83;21549;-73
2022/07/26 06:03:21;;;;;;;2.77;0.72;;;;;;;26.56;49.55;99928.01;1669163;84;21062;-71
2022/07/26 06:05:52;;;;;;;0.90;0.90;;;;;;;26.47;49.42;99933.93;1695399;83;21049;-70
2022/07/26 06:08:19;;;;;;;3.22;0.70;;;;;;;26.42;49.43;99928.56;1693347;83;21557;-72
2022/07/26 06:10:47;;;;;;;1.80;0.80;;;;;;;26.36;49.68;99925.69;1695337;83;21123;-72
2022/07/26 06:13:15;;;;;;;5.15;0.93;;;;;;;26.26;50.36;99922.61;1691851;81;21021;-71
2022/07/26 06:15:42;;;;;;;1.17;0.78;;;;;;;26.32;49.50;99926.84;1694629;83;21538;-71
2022/07/26 06:18:09;;;;;;;1.45;0.68;;;;;;;26.25;50.35;99920.17;1696953;83;21027;-70
2022/07/26 06:20:43;;;;;;;2.15;1.15;;;;;;;26.29;49.43;99929.38;1660058;85;21046;-71
2022/07/26 06:23:10;;;;;;;1.05;0.82;;;;;;;25.97;49.90;99920.95;1709747;82;20943;-70
2022/07/26 06:25:36;;;;;;;1.07;0.70;;;;;;;25.81;51.39;99916.86;1727179;82;21546;-71
2022/07/26 06:28:08;;;;;;;1.72;0.90;;;;;;;25.74;51.12;99916.44;1726178;82;21007;-72
2022/07/26 06:30:38;;;;;;;2.08;1.00;;;;;;;25.81;50.95;99908.67;1700594;82;21022;-71
2022/07/26 06:33:06;;;;;;;1.95;1.15;;;;;;;25.91;50.36;99904.38;1729066;82;21062;-70
2022/07/26 06:35:34;;;;;;;2.60;0.78;;;;;;;25.98;50.04;99904.03;1727169;82;21052;-71
2022/07/26 06:38:03;;;;;;;9.95;1.25;;;;;;;26.03;50.19;99900.64;1729888;81;21098;-70
2022/07/26 06:40:31;;;;;;;0.57;0.50;;;;;;;26.13;49.81;99902.36;1733838;82;20956;-70
2022/07/26 06:43:01;;;;;;;0.50;0.30;;;;;;;26.22;48.28;99899.19;1730190;82;21133;-70
2022/07/26 06:45:28;;;;;;;1.75;0.42;;;;;;;26.00;48.52;99895.78;1727456;81;21041;-69
2022/07/26 06:47:55;;;;;;;1.30;0.50;;;;;;;25.55;49.71;99901.48;1740877;82;21514;-70
2022/07/26 06:50:22;;;;;;;2.72;0.60;;;;;;;25.28;50.65;99895.36;1745079;82;20983;-70
2022/07/26 06:52:48;;;;;;;3.35;1.40;;;;;;;25.08;51.23;99897.28;1729208;82;21006;-68
2022/07/26 06:55:14;;;;;;;1.07;1.00;;;;;;;24.99;52.01;99895.77;1723020;81;21116;-70
2022/07/26 06:57:40;;;;;;;1.77;0.95;;;;;;;25.08;53.24;99886.94;1734497;82;20986;-70
2022/07/26 07:00:09;;;;;;;0.80;0.72;;;;;;;25.34;52.04;99882.73;1707100;80;21045;-67
2022/07/26 07:02:35;;;;;;;0.75;0.70;;;;;;;25.37;51.75;99883.50;1732478;82;21021;-70
2022/07/26 07:05:04;;;;;;;0.70;0.70;;;;;;;25.53;50.74;99885.97;1722246;81;21103;-69
2022/07/26 07:07:30;;;;;;;2.33;0.28;;;;;;;25.41;50.88;99887.25;1722617;82;21246;-70
2022/07/26 07:09:56;;;;;;;1.15;0.68;;;;;;;25.41;51.18;99879.06;1722362;82;21087;-70
2022/07/26 07:12:23;;;;;;;1.17;0.85;;;;;;;25.46;50.49;99879.52;1726910;81;21050;-70
2022/07/26 07:14:49;;;;;;;4.42;0.70;;;;;;;25.44;50.79;99877.09;1726074;82;20983;-70
2022/07/26 07:17:18;;;;;;;1.10;0.45;;;;;;;25.43;50.24;99880.14;1724403;82;21019;-71
2022/07/26 07:19:45;;;;;;;9.78;1.30;;;;;;;25.42;50.23;99877.14;1722787;82;21058;-70
2022/07/26 07:22:12;;;;;;;2.87;0.95;;;;;;;25.57;50.27;99881.53;1717712;82;21599;-72
2022/07/26 07:24:41;;;;;;;1.55;0.55;;;;;;;25.63;49.48;99875.66;1711307;82;21031;-70
2022/07/26 07:27:08;;;;;;;2.90;0.30;;;;;;;25.62;50.03;99869.17;1719452;82;20996;-70
2022/07/26 07:29:38;;;;;;;1.32;0.40;;;;;;;25.59;49.08;99869.19;1723578;82;21077;-69
2022/07/26 07:32:05;;;;;;;0.60;0.40;;;;;;;25.34;50.07;99874.55;1725892;82;21756;-69
2022/07/26 07:34:31;;;;;;;0.70;0.30;;;;;;;25.22;50.88;99873.62;1722840;82;21546;-71
2022/07/26 07:36:57;;;;;;;0.98;0.40;;;;;;;25.15;50.73;99869.66;1732963;82;21053;-69
2022/07/26 07:39:23;;;;;;;0.70;0.35;;;;;;;25.10;51.37;99865.08;1738230;81;21089;-68
2022/07/26 07:41:49;;;;;;;0.62;0.20;;;;;;;25.06;50.61;99866.78;1731899;82;21010;-70
2022/07/26 07:44:16;;;;;;;0.40;0.30;;;;;;;24.94;50.87;99879.51;1733518;81;21109;-68
2022/07/26 07:46:43;;;;;;;4.55;0.72;;;;;;;24.84;50.70;99874.19;1678812;85;21028;-69
2022/07/26 07:49:09;;;;;;;2.58;0.20;;;;;;;24.74;50.87;99871.06;1694818;84;21068;-70
2022/07/26 07:51:36;;;;;;;1.22;0.57;;;;;;;24.61;51.53;99877.24;1694608;83;21012;-68
2022/07/26 07:54:03;;;;;;;0.30;0.30;;;;;;;24.58;51.21;99877.81;1694358;83;21046;-71
2022/07/26 07:56:32;;;;;;;3.60;0.72;;;;;;;24.51;51.92;99882.25;1694675;83;20959;-68
2022/07/26 07:58:59;;;;;;;1.42;0.55;;;;;;;24.42;52.06;99890.80;1693010;84;21601;-70
2022/07/26 08:01:25;;;;;;;0.28;0.28;;;;;;;24.29;53.19;99890.40;1694465;84;21129;-69
2022/07/26 08:03:52;;;;;;;2.60;0.60;;;;;;;24.34;52.00;99890.91;1693844;84;21501;-69
2022/07/26 08:06:20;;;;;;;0.47;0.28;;;;;;;24.34;52.24;99902.36;1694440;84;21094;-70
2022/07/26 08:08:46;;;;;;;2.27;0.55;;;;;;;24.30;51.02;99898.03;1693689;84;22093;-71
2022/07/26 08:11:12;;;;;;;0.95;0.30;;;;;;;24.29;51.97;99899.93;1694337;82;21026;-70
2022/07/26 08:13:40;;;;;;;0.70;0.30;;;;;;;24.39;52.33;99901.74;1707256;83;21125;-69
2022/07/26 08:16:07;;;;;;;0.23;0.23;;;;;;;24.45;52.01;99899.21;1703285;83;21556;-70
2022/07/26 08:18:33;;;;;;;0.60;0.30;;;;;;;24.48;51.43;99899.16;1661995;85;21012;-69
2022/07/26 08:21:02;;;;;;;1.25;0.20;;;;;;;24.38;51.64;99896.58;1710073;83;21062;-70
2022/07/26 08:23:28;;;;;;;2.65;0.20;;;;;;;24.24;52.20;99896.45;1697479;83;21021;-70
2022/07/26 08:25:56;;;;;;;0.20;0.20;;;;;;;24.25;52.29;99891.28;1707928;83;21525;-71
2022/07/26 08:28:28;;;;;;;1.10;0.20;;;;;;;24.32;51.80;99893.64;1694850;83;21129;-68
2022/07/26 08:30:54;;;;;;;1.42;0.20;;;;;;;24.32;51.51;99889.55;1694340;83;21549;-69
2022/07/26 08:33:22;;;;;;;4.80;1.05;;;;;;;24.30;51.70;99885.78;1677574;82;21561;-69
2022/07/26 08:35:49;;;;;;;1.90;0.23;;;;;;;24.33;51.49;99885.18;1702640;83;21042;-72
2022/07/26 08:38:15;;;;;;;0.30;0.30;;;;;;;24.43;51.63;99876.90;1703113;83;21027;-70
2022/07/26 08:40:41;;;;;;;1.37;0.53;;;;;;;24.56;51.16;99868.56;1712906;83;21062;-68
2022/07/26 08:43:09;;;;;;;1.02;0.40;;;;;;;24.58;50.53;99893.63;1699240;83;21038;-68
2022/07/26 08:45:36;;;;;;;1.45;1.00;;;;;;;24.52;50.61;99891.25;1693631;83;21003;-69
2022/07/26 08:48:02;;;;;;;4.10;0.40;;;;;;;24.37;51.49;99885.41;1696693;83;21034;-70
2022/07/26 08:50:29;;;;;;;2.35;0.50;;;;;;;24.32;52.11;99882.74;1697278;83;21061;-70
2022/07/26 08:53:00;;;;;;;8.95;0.68;;;;;;;24.37;50.87;99874.52;1694707;83;21081;-68
2022/07/26 08:55:26;;;;;;;2.60;0.70;;;;;;;24.40;51.70;99867.14;1696071;83;21674;-69
2022/07/26 08:57:53;;;;;;;1.92;0.57;;;;;;;24.45;51.47;99872.53;1694387;83;21029;-70
2022/07/26 09:00:24;;;;;;;10.82;0.82;;;;;;;24.53;50.73;99859.64;1670592;84;21603;-69
2022/07/26 09:02:52;;;;;;;3.37;0.30;;;;;;;24.65;50.39;99868.73;1682306;83;20993;-69
2022/07/26 09:05:33;;;;;;;0.40;0.37;;;;;;;24.67;48.92;99855.63;1693956;83;21508;-69
2022/07/26 09:08:02;;;;;;;0.55;0.37;;;;;;;24.68;49.40;99855.34;1694004;83;21065;-69
2022/07/26 09:10:33;;;;;;;4.35;1.50;;;;;;;24.79;49.31;99842.38;1696850;83;21005;-69
2022/07/26 09:12:59;;;;;;;0.88;0.40;;;;;;;24.92;48.94;99854.99;1703616;81;21034;-68
2022/07/26 09:15:27;;;;;;;0.40;0.40;;;;;;;24.90;49.00;99852.55;1704546;83;21141;-70
2022/07/26 09:17:56;;;;;;;1.47;0.42;;;;;;;24.92;48.96;99846.81;1710175;83;21106;-69
2022/07/26 09:20:28;;;;;;;0.50;0.50;;;;;;;24.94;48.59;99849.52;1697307;83;21048;-69
2022/07/26 09:23:10;;;;;;;1.25;0.42;;;;;;;24.92;48.63;99844.92;1699406;83;21059;-70
2022/07/26 09:25:42;;;;;;;0.85;0.60;;;;;;;24.91;48.52;99839.20;1700944;82;21163;-69
2022/07/26 09:28:29;;;;;;;0.35;0.20;;;;;;;24.90;48.21;99840.84;1709452;82;21079;-70
2022/07/26 09:31:00;;;;;;;1.27;0.93;;;;;;;24.87;48.36;99830.00;1694127;82;21072;-70
2022/07/26 09:33:46;;;;;;;0.70;0.40;;;;;;;24.86;48.57;99831.09;1706546;82;21020;-70
2022/07/26 09:36:13;;;;;;;0.35;0.30;;;;;;;24.91;47.81;99826.13;1714363;82;21017;-69
2022/07/26 09:38:43;;;;;;;0.65;0.47;;;;;;;24.92;47.49;99827.20;1709158;82;21075;-69
2022/07/26 09:41:26;;;;;;;2.72;0.42;;;;;;;24.97;46.56;99830.39;1710448;82;21020;-70
2022/07/26 09:43:58;;;;;;;1.82;0.45;;;;;;;25.02;47.36;99820.20;1706494;82;21088;-70
2022/07/26 09:46:27;;;;;;;1.20;0.30;;;;;;;25.10;47.44;99822.81;1709054;82;21043;-70
2022/07/26 09:48:55;;;;;;;1.20;0.30;;;;;;;25.15;47.03;99828.19;1708703;82;21888;-69
2022/07/26 09:51:41;;;;;;;0.72;0.25;;;;;;;25.08;47.51;99826.95;1705399;82;21667;-69
2022/07/26 09:54:09;;;;;;;0.53;0.20;;;;;;;24.98;47.18;99829.30;1711819;82;21612;-70
2022/07/26 09:56:49;;;;;;;2.17;0.45;;;;;;;24.85;47.17;99839.83;1703437;80;21005;-70
2022/07/26 09:59:21;;;;;;;0.62;0.20;;;;;;;24.73;47.13;99838.65;1695733;82;21592;-70
2022/07/26 10:01:51;;;;;;;2.15;0.50;;;;;;;24.72;47.49;99834.31;1689808;82;21585;-70
2022/07/26 10:04:18;;;;;;;2.37;0.30;;;;;;;24.81;47.48;99832.55;1698359;82;21024;-69
2022/07/26 10:06:47;;;;;;;0.93;0.40;;;;;;;24.95;47.38;99828.52;1702833;82;21516;-71
2022/07/26 10:09:14;;;;;;;0.72;0.50;;;;;;;25.12;46.86;99833.42;1707062;82;21126;-69
2022/07/26 10:11:46;;;;;;;1.22;0.40;;;;;;;25.26;46.76;99837.05;1708691;82;21042;-69
2022/07/26 10:14:35;;;;;;;2.95;0.20;;;;;;;25.40;46.28;99834.34;1691668;83;21042;-68
2022/07/26 10:17:32;;;;;;;2.50;0.50;;;;;;;25.52;45.94;99837.95;1635465;86;21069;-69
2022/07/26 10:20:07;;;;;;;1.00;0.40;;;;;;;25.59;45.71;99831.55;1689456;83;21065;-68
2022/07/26 10:22:45;;;;;;;1.00;0.20;;;;;;;25.59;45.08;99839.17;1698161;83;20994;-66
2022/07/26 10:25:22;;;;;;;0.23;0.10;;;;;;;25.55;44.88;99835.44;1699742;83;21026;-69
2022/07/26 10:27:53;;;;;;;0.98;0.25;;;;;;;25.58;44.96;99829.92;1700974;83;21101;-68
2022/07/26 10:30:22;;;;;;;0.30;0.28;;;;;;;25.65;45.24;99819.42;1696949;83;21043;-68
2022/07/26 10:33:12;;;;;;;0.30;0.20;;;;;;;25.72;45.23;99818.47;1692971;83;21135;-70
2022/07/26 10:35:42;;;;;;;1.25;0.30;;;;;;;25.79;45.17;99820.25;1693083;83;21115;-70
2022/07/26 10:38:23;;;;;;;0.20;0.20;;;;;;;25.88;44.83;99816.80;1694750;83;21070;-70
2022/07/26 10:41:04;;;;;;;1.27;1.00;;;;;;;25.98;44.66;99818.02;1692396;83;21057;-70
2022/07/26 10:43:32;;;;;;;1.62;1.42;;;;;;;25.79;44.29;99761.56;1693520;83;21538;-71
2022/07/26 10:46:21;;;;;;;0.90;0.47;;;;;;;26.24;43.73;99811.47;1702664;81;22079;-70
2022/07/26 10:49:05;;;;;;;0.37;0.30;;;;;;;26.34;43.75;99818.64;1695420;83;21136;-72
2022/07/26 10:51:39;;;;;;;0.10;0.10;;;;;;;26.40;43.20;99813.30;1690752;83;21134;-70
2022/07/26 10:54:09;;;;;;;3.20;0.20;;;;;;;26.38;42.85;99810.87;1694910;83;21539;-71
2022/07/26 10:56:36;;;;;;;0.68;0.10;;;;;;;26.39;42.85;99804.84;1699526;83;20991;-71
2022/07/26 10:59:04;;;;;;;0.75;0.23;;;;;;;26.40;42.91;99814.10;1694161;83;21122;-69
2022/07/26 11:01:44;;;;;;;1.47;0.30;;;;;;;26.39;42.89;99801.58;1699960;83;21097;-72
2022/07/26 11:04:21;;;;;;;0.23;0.10;;;;;;;26.35;42.77;99801.94;1690268;83;20979;-70
2022/07/26 11:06:49;;;;;;;0.30;0.20;;;;;;;26.34;42.72;99806.34;1703147;83;21023;-71
2022/07/26 11:09:18;;;;;;;0.98;0.13;;;;;;;26.35;43.03;99802.48;1691186;83;21035;-69
2022/07/26 11:11:45;;;;;;;2.05;0.10;;;;;;;26.39;42.75;99808.94;1693881;83;21047;-70
2022/07/26 11:14:14;;;;;;;0.10;0.10;;;;;;;26.44;42.25;99812.94;1692121;83;21056;-69
2022/07/26 11:16:46;;;;;;;1.17;0.20;;;;;;;26.40;41.84;99810.00;1695790;83;21076;-69
2022/07/26 11:19:17;;;;;;;0.65;0.13;;;;;;;26.38;42.03;99805.41;1707501;83;21028;-69
2022/07/26 11:21:46;;;;;;;3.02;0.30;;;;;;;26.39;42.35;99802.94;1709931;83;21080;-69
2022/07/26 11:24:12;;;;;;;0.30;0.10;;;;;;;26.41;42.33;99796.61;1694506;83;21109;-69
2022/07/26 11:26:44;;;;;;;0.85;0.30;;;;;;;26.42;41.95;99798.20;1701230;83;21125;-68
2022/07/26 11:29:10;;;;;;;1.25;0.15;;;;;;;26.44;41.82;99793.01;1708053;83;20986;-69
2022/07/26 11:31:45;;;;;;;1.05;0.20;;;;;;;26.43;41.53;99794.94;1703597;83;21068;-70
2022/07/26 11:34:23;;;;;;;0.88;0.28;;;;;;;26.47;41.65;99795.14;1721203;82;21014;-70
2022/07/26 11:36:54;;;;;;;1.45;0.10;;;;;;;26.53;40.80;99797.42;1687482;82;21088;-69
2022/07/26 11:39:26;;;;;;;0.30;0.10;;;;;;;26.54;41.26;99797.69;1713326;82;21050;-69
2022/07/26 11:42:03;;;;;;;0.60;0.10;;;;;;;26.53;40.87;99797.42;1714311;82;21125;-70
2022/07/26 11:44:32;;;;;;;;;;;;;;;26.47;40.82;99804.13;1712880;81;21041;-67
2022/07/26 11:46:59;;;;;;;0.10;0.10;;;;;;;26.34;40.72;99804.41;1700305;83;20142;-70
2022/07/26 11:49:29;;;;;;;1.57;0.30;;;;;;;26.21;41.13;99791.59;1698272;83;21045;-69